sensor_id;sensor_type;location;lat;lon;timestamp;P1;durP1;ratioP1;P2;durP2;ratioP2
3767;SDS011;1899;49.966;7.106;2023-12-20T00:02:02;3.43;;;1.60;;
3767;SDS011;1899;49.966;7.106;2023-12-20T00:04:27;5.77;;;1.40;;
3767;SDS011;1899;49.966;7.106;2023-12-20T00:06:52;2.43;;;1.10;;
3767;SDS011;1899;49.966;7.106;2023-12-20T00:09:18;2.80;;;1.27;;
3767;SDS011;1899;49.966;7.106;2023-12-20T00:11:43;2.93;;;1.20;;
3767;SDS011;1899;49.966;7.106;2023-12-20T00:14:08;4.27;;;1.90;;
3767;SDS011;1899;49.966;7.106;2023-12-20T00:16:34;3.83;;;1.50;;
3767;SDS011;1899;49.966;7.106;2023-12-20T00:18:59;2.50;;;1.20;;
3767;SDS011;1899;49.966;7.106;2023-12-20T00:21:24;3.07;;;1.40;;
3767;SDS011;1899;49.966;7.106;2023-12-20T00:23:49;3.20;;;1.30;;
3767;SDS011;1899;49.966;7.106;2023-12-20T00:26:15;3.50;;;1.17;;
3767;SDS011;1899;49.966;7.106;2023-12-20T00:28:40;2.93;;;1.30;;
3767;SDS011;1899;49.966;7.106;2023-12-20T00:31:05;3.17;;;1.57;;
3767;SDS011;1899;49.966;7.106;2023-12-20T00:33:31;2.73;;;1.40;;
3767;SDS011;1899;49.966;7.106;2023-12-20T00:35:56;2.50;;;1.10;;
3767;SDS011;1899;49.966;7.106;2023-12-20T00:38:21;3.20;;;1.50;;
3767;SDS011;1899;49.966;7.106;2023-12-20T00:40:47;2.93;;;1.20;;
3767;SDS011;1899;49.966;7.106;2023-12-20T00:43:14;2.80;;;1.27;;
3767;SDS011;1899;49.966;7.106;2023-12-20T00:45:39;2.57;;;1.20;;
3767;SDS011;1899;49.966;7.106;2023-12-20T00:48:05;2.40;;;1.20;;
3767;SDS011;1899;49.966;7.106;2023-12-20T00:50:30;3.30;;;1.47;;
3767;SDS011;1899;49.966;7.106;2023-12-20T00:52:56;3.10;;;1.37;;
3767;SDS011;1899;49.966;7.106;2023-12-20T00:55:21;3.10;;;1.70;;
3767;SDS011;1899;49.966;7.106;2023-12-20T00:57:46;5.13;;;1.13;;
3767;SDS011;1899;49.966;7.106;2023-12-20T01:00:12;3.77;;;1.40;;
3767;SDS011;1899;49.966;7.106;2023-12-20T01:02:38;3.27;;;1.50;;
3767;SDS011;1899;49.966;7.106;2023-12-20T01:05:03;2.90;;;1.30;;
3767;SDS011;1899;49.966;7.106;2023-12-20T01:07:29;2.70;;;1.20;;
3767;SDS011;1899;49.966;7.106;2023-12-20T01:09:54;2.50;;;1.23;;
3767;SDS011;1899;49.966;7.106;2023-12-20T01:12:19;3.73;;;1.50;;
3767;SDS011;1899;49.966;7.106;2023-12-20T01:14:45;2.80;;;1.13;;
3767;SDS011;1899;49.966;7.106;2023-12-20T01:17:10;3.20;;;1.43;;
3767;SDS011;1899;49.966;7.106;2023-12-20T01:19:36;3.00;;;1.43;;
3767;SDS011;1899;49.966;7.106;2023-12-20T01:22:01;4.23;;;1.70;;
3767;SDS011;1899;49.966;7.106;2023-12-20T01:24:26;3.60;;;1.83;;
3767;SDS011;1899;49.966;7.106;2023-12-20T01:26:51;3.67;;;1.20;;
3767;SDS011;1899;49.966;7.106;2023-12-20T01:29:17;2.60;;;1.13;;
3767;SDS011;1899;49.966;7.106;2023-12-20T01:31:42;3.20;;;1.43;;
3767;SDS011;1899;49.966;7.106;2023-12-20T01:34:07;3.13;;;1.50;;
3767;SDS011;1899;49.966;7.106;2023-12-20T01:36:32;3.80;;;1.60;;
3767;SDS011;1899;49.966;7.106;2023-12-20T01:38:58;2.90;;;1.30;;
3767;SDS011;1899;49.966;7.106;2023-12-20T01:41:23;4.03;;;1.80;;
3767;SDS011;1899;49.966;7.106;2023-12-20T01:43:48;2.83;;;1.33;;
3767;SDS011;1899;49.966;7.106;2023-12-20T01:46:13;3.30;;;1.60;;
3767;SDS011;1899;49.966;7.106;2023-12-20T01:48:39;3.13;;;1.90;;
3767;SDS011;1899;49.966;7.106;2023-12-20T01:51:05;2.90;;;1.30;;
3767;SDS011;1899;49.966;7.106;2023-12-20T01:53:30;3.97;;;2.03;;
3767;SDS011;1899;49.966;7.106;2023-12-20T01:55:57;3.33;;;1.60;;
3767;SDS011;1899;49.966;7.106;2023-12-20T01:58:23;3.87;;;1.80;;
3767;SDS011;1899;49.966;7.106;2023-12-20T02:00:49;4.73;;;2.13;;
3767;SDS011;1899;49.966;7.106;2023-12-20T02:03:14;3.00;;;1.67;;
3767;SDS011;1899;49.966;7.106;2023-12-20T02:05:40;4.20;;;1.93;;
3767;SDS011;1899;49.966;7.106;2023-12-20T02:08:06;4.23;;;2.03;;
3767;SDS011;1899;49.966;7.106;2023-12-20T02:10:32;4.27;;;1.70;;
3767;SDS011;1899;49.966;7.106;2023-12-20T02:12:57;3.77;;;1.67;;
3767;SDS011;1899;49.966;7.106;2023-12-20T02:15:22;2.93;;;1.57;;
3767;SDS011;1899;49.966;7.106;2023-12-20T02:17:48;4.03;;;2.00;;
3767;SDS011;1899;49.966;7.106;2023-12-20T02:20:14;4.83;;;1.97;;
3767;SDS011;1899;49.966;7.106;2023-12-20T02:22:39;5.23;;;2.40;;
3767;SDS011;1899;49.966;7.106;2023-12-20T02:25:04;3.07;;;1.87;;
3767;SDS011;1899;49.966;7.106;2023-12-20T02:27:30;4.30;;;2.00;;
3767;SDS011;1899;49.966;7.106;2023-12-20T02:29:55;4.10;;;2.20;;
3767;SDS011;1899;49.966;7.106;2023-12-20T02:32:21;4.00;;;1.80;;
3767;SDS011;1899;49.966;7.106;2023-12-20T02:34:47;4.27;;;2.53;;
3767;SDS011;1899;49.966;7.106;2023-12-20T02:37:12;3.43;;;1.50;;
3767;SDS011;1899;49.966;7.106;2023-12-20T02:39:37;3.93;;;2.20;;
3767;SDS011;1899;49.966;7.106;2023-12-20T02:42:03;4.50;;;2.13;;
3767;SDS011;1899;49.966;7.106;2023-12-20T02:44:28;4.07;;;2.33;;
3767;SDS011;1899;49.966;7.106;2023-12-20T02:46:53;3.67;;;2.03;;
3767;SDS011;1899;49.966;7.106;2023-12-20T02:49:19;3.70;;;2.10;;
3767;SDS011;1899;49.966;7.106;2023-12-20T02:51:44;6.03;;;3.07;;
3767;SDS011;1899;49.966;7.106;2023-12-20T02:54:09;4.17;;;1.80;;
3767;SDS011;1899;49.966;7.106;2023-12-20T02:56:35;3.23;;;1.80;;
3767;SDS011;1899;49.966;7.106;2023-12-20T02:59:00;3.07;;;1.43;;
3767;SDS011;1899;49.966;7.106;2023-12-20T03:01:27;4.30;;;2.00;;
3767;SDS011;1899;49.966;7.106;2023-12-20T03:03:52;3.10;;;1.60;;
3767;SDS011;1899;49.966;7.106;2023-12-20T03:06:17;3.10;;;1.80;;
3767;SDS011;1899;49.966;7.106;2023-12-20T03:08:43;4.03;;;2.40;;
3767;SDS011;1899;49.966;7.106;2023-12-20T03:11:08;3.80;;;2.33;;
3767;SDS011;1899;49.966;7.106;2023-12-20T03:13:34;4.17;;;2.13;;
3767;SDS011;1899;49.966;7.106;2023-12-20T03:15:59;4.33;;;1.90;;
3767;SDS011;1899;49.966;7.106;2023-12-20T03:18:24;4.43;;;2.40;;
3767;SDS011;1899;49.966;7.106;2023-12-20T03:20:50;4.53;;;2.30;;
3767;SDS011;1899;49.966;7.106;2023-12-20T03:23:15;4.40;;;2.57;;
3767;SDS011;1899;49.966;7.106;2023-12-20T03:25:41;3.80;;;2.40;;
3767;SDS011;1899;49.966;7.106;2023-12-20T03:28:06;5.23;;;2.80;;
3767;SDS011;1899;49.966;7.106;2023-12-20T03:30:31;6.67;;;2.87;;
3767;SDS011;1899;49.966;7.106;2023-12-20T03:32:57;4.50;;;3.00;;
3767;SDS011;1899;49.966;7.106;2023-12-20T03:35:22;5.13;;;2.60;;
3767;SDS011;1899;49.966;7.106;2023-12-20T03:37:47;4.40;;;2.63;;
3767;SDS011;1899;49.966;7.106;2023-12-20T03:40:12;6.67;;;3.07;;
3767;SDS011;1899;49.966;7.106;2023-12-20T03:42:38;6.93;;;2.47;;
3767;SDS011;1899;49.966;7.106;2023-12-20T03:45:03;5.23;;;2.40;;
3767;SDS011;1899;49.966;7.106;2023-12-20T03:47:28;4.70;;;2.60;;
3767;SDS011;1899;49.966;7.106;2023-12-20T03:49:53;3.60;;;2.43;;
3767;SDS011;1899;49.966;7.106;2023-12-20T03:52:19;7.00;;;2.40;;
3767;SDS011;1899;49.966;7.106;2023-12-20T03:54:44;5.00;;;2.07;;
3767;SDS011;1899;49.966;7.106;2023-12-20T03:57:09;4.10;;;1.90;;
3767;SDS011;1899;49.966;7.106;2023-12-20T03:59:35;7.83;;;2.43;;
3767;SDS011;1899;49.966;7.106;2023-12-20T04:02:01;4.77;;;1.73;;
3767;SDS011;1899;49.966;7.106;2023-12-20T04:04:27;3.93;;;1.90;;
3767;SDS011;1899;49.966;7.106;2023-12-20T04:06:52;5.43;;;2.17;;
3767;SDS011;1899;49.966;7.106;2023-12-20T04:09:17;5.07;;;1.90;;
3767;SDS011;1899;49.966;7.106;2023-12-20T04:11:42;5.27;;;1.63;;
3767;SDS011;1899;49.966;7.106;2023-12-20T04:14:08;5.97;;;2.57;;
3767;SDS011;1899;49.966;7.106;2023-12-20T04:16:33;4.33;;;2.10;;
3767;SDS011;1899;49.966;7.106;2023-12-20T04:18:58;4.60;;;1.90;;
3767;SDS011;1899;49.966;7.106;2023-12-20T04:21:23;7.13;;;2.03;;
3767;SDS011;1899;49.966;7.106;2023-12-20T04:23:49;6.10;;;1.93;;
3767;SDS011;1899;49.966;7.106;2023-12-20T04:26:14;9.90;;;3.73;;
3767;SDS011;1899;49.966;7.106;2023-12-20T04:28:39;9.33;;;2.50;;
3767;SDS011;1899;49.966;7.106;2023-12-20T04:31:04;4.20;;;2.30;;
3767;SDS011;1899;49.966;7.106;2023-12-20T04:33:30;5.87;;;2.43;;
3767;SDS011;1899;49.966;7.106;2023-12-20T04:35:55;7.17;;;2.63;;
3767;SDS011;1899;49.966;7.106;2023-12-20T04:38:20;6.93;;;2.57;;
3767;SDS011;1899;49.966;7.106;2023-12-20T04:40:45;6.73;;;1.83;;
3767;SDS011;1899;49.966;7.106;2023-12-20T04:43:10;4.67;;;2.03;;
3767;SDS011;1899;49.966;7.106;2023-12-20T04:45:36;7.57;;;2.00;;
3767;SDS011;1899;49.966;7.106;2023-12-20T04:48:01;5.30;;;1.97;;
3767;SDS011;1899;49.966;7.106;2023-12-20T04:50:27;4.73;;;2.20;;
3767;SDS011;1899;49.966;7.106;2023-12-20T04:52:52;4.30;;;2.17;;
3767;SDS011;1899;49.966;7.106;2023-12-20T04:55:18;6.63;;;2.07;;
3767;SDS011;1899;49.966;7.106;2023-12-20T04:57:43;3.33;;;1.73;;
3767;SDS011;1899;49.966;7.106;2023-12-20T05:00:08;5.13;;;2.47;;
3767;SDS011;1899;49.966;7.106;2023-12-20T05:02:34;6.10;;;2.07;;
3767;SDS011;1899;49.966;7.106;2023-12-20T05:05:00;6.07;;;2.40;;
3767;SDS011;1899;49.966;7.106;2023-12-20T05:07:25;7.10;;;2.57;;
3767;SDS011;1899;49.966;7.106;2023-12-20T05:09:50;4.20;;;1.83;;
3767;SDS011;1899;49.966;7.106;2023-12-20T05:12:16;4.93;;;2.40;;
3767;SDS011;1899;49.966;7.106;2023-12-20T05:14:41;5.77;;;2.27;;
3767;SDS011;1899;49.966;7.106;2023-12-20T05:17:06;7.57;;;2.83;;
3767;SDS011;1899;49.966;7.106;2023-12-20T05:19:31;10.00;;;2.97;;
3767;SDS011;1899;49.966;7.106;2023-12-20T05:22:00;3.23;;;1.67;;
3767;SDS011;1899;49.966;7.106;2023-12-20T05:24:25;8.73;;;2.33;;
3767;SDS011;1899;49.966;7.106;2023-12-20T05:26:50;4.53;;;1.77;;
3767;SDS011;1899;49.966;7.106;2023-12-20T05:29:15;7.90;;;2.53;;
3767;SDS011;1899;49.966;7.106;2023-12-20T05:31:42;6.83;;;2.60;;
3767;SDS011;1899;49.966;7.106;2023-12-20T05:34:07;5.33;;;2.80;;
3767;SDS011;1899;49.966;7.106;2023-12-20T05:36:33;7.53;;;2.70;;
3767;SDS011;1899;49.966;7.106;2023-12-20T05:38:58;7.73;;;2.13;;
3767;SDS011;1899;49.966;7.106;2023-12-20T05:41:23;4.97;;;2.23;;
3767;SDS011;1899;49.966;7.106;2023-12-20T05:43:48;3.90;;;1.40;;
3767;SDS011;1899;49.966;7.106;2023-12-20T05:46:14;5.30;;;2.13;;
3767;SDS011;1899;49.966;7.106;2023-12-20T05:48:39;6.00;;;3.00;;
3767;SDS011;1899;49.966;7.106;2023-12-20T05:51:04;4.80;;;1.83;;
3767;SDS011;1899;49.966;7.106;2023-12-20T05:53:29;9.33;;;2.03;;
3767;SDS011;1899;49.966;7.106;2023-12-20T05:55:55;3.10;;;1.40;;
3767;SDS011;1899;49.966;7.106;2023-12-20T05:58:20;8.00;;;2.67;;
3767;SDS011;1899;49.966;7.106;2023-12-20T06:00:45;5.63;;;2.00;;
3767;SDS011;1899;49.966;7.106;2023-12-20T06:03:10;5.53;;;2.20;;
3767;SDS011;1899;49.966;7.106;2023-12-20T06:05:36;4.07;;;1.60;;
3767;SDS011;1899;49.966;7.106;2023-12-20T06:08:01;8.17;;;2.00;;
3767;SDS011;1899;49.966;7.106;2023-12-20T06:10:28;8.70;;;2.67;;
3767;SDS011;1899;49.966;7.106;2023-12-20T06:12:53;4.60;;;1.73;;
3767;SDS011;1899;49.966;7.106;2023-12-20T06:15:19;9.60;;;2.20;;
3767;SDS011;1899;49.966;7.106;2023-12-20T06:17:44;3.63;;;1.90;;
3767;SDS011;1899;49.966;7.106;2023-12-20T06:20:11;4.20;;;1.87;;
3767;SDS011;1899;49.966;7.106;2023-12-20T06:22:37;8.93;;;2.80;;
3767;SDS011;1899;49.966;7.106;2023-12-20T06:25:02;4.70;;;2.10;;
3767;SDS011;1899;49.966;7.106;2023-12-20T06:27:28;8.67;;;2.03;;
3767;SDS011;1899;49.966;7.106;2023-12-20T06:29:53;5.50;;;2.30;;
3767;SDS011;1899;49.966;7.106;2023-12-20T06:32:18;4.83;;;2.47;;
3767;SDS011;1899;49.966;7.106;2023-12-20T06:34:43;8.30;;;2.90;;
3767;SDS011;1899;49.966;7.106;2023-12-20T06:37:09;7.77;;;2.73;;
3767;SDS011;1899;49.966;7.106;2023-12-20T06:39:35;6.30;;;2.90;;
3767;SDS011;1899;49.966;7.106;2023-12-20T06:42:00;11.53;;;3.77;;
3767;SDS011;1899;49.966;7.106;2023-12-20T06:44:26;6.00;;;2.77;;
3767;SDS011;1899;49.966;7.106;2023-12-20T06:46:51;9.00;;;3.20;;
3767;SDS011;1899;49.966;7.106;2023-12-20T06:49:16;9.07;;;2.50;;
3767;SDS011;1899;49.966;7.106;2023-12-20T06:51:41;8.43;;;3.50;;
3767;SDS011;1899;49.966;7.106;2023-12-20T06:54:06;7.03;;;2.67;;
3767;SDS011;1899;49.966;7.106;2023-12-20T06:56:32;11.00;;;2.97;;
3767;SDS011;1899;49.966;7.106;2023-12-20T06:58:57;8.57;;;3.07;;
3767;SDS011;1899;49.966;7.106;2023-12-20T07:01:22;6.47;;;2.40;;
3767;SDS011;1899;49.966;7.106;2023-12-20T07:03:48;6.40;;;2.80;;
3767;SDS011;1899;49.966;7.106;2023-12-20T07:06:13;5.70;;;2.53;;
3767;SDS011;1899;49.966;7.106;2023-12-20T07:08:41;12.30;;;3.33;;
3767;SDS011;1899;49.966;7.106;2023-12-20T07:11:06;13.00;;;3.20;;
3767;SDS011;1899;49.966;7.106;2023-12-20T07:13:31;6.70;;;2.80;;
3767;SDS011;1899;49.966;7.106;2023-12-20T07:15:57;7.10;;;2.87;;
3767;SDS011;1899;49.966;7.106;2023-12-20T07:18:22;13.50;;;3.27;;
3767;SDS011;1899;49.966;7.106;2023-12-20T07:20:47;7.03;;;2.50;;
3767;SDS011;1899;49.966;7.106;2023-12-20T07:23:13;6.80;;;2.87;;
3767;SDS011;1899;49.966;7.106;2023-12-20T07:25:38;8.23;;;2.90;;
3767;SDS011;1899;49.966;7.106;2023-12-20T07:28:03;8.73;;;3.50;;
3767;SDS011;1899;49.966;7.106;2023-12-20T07:30:28;10.53;;;3.60;;
3767;SDS011;1899;49.966;7.106;2023-12-20T07:32:54;10.00;;;3.77;;
3767;SDS011;1899;49.966;7.106;2023-12-20T07:35:19;7.47;;;3.27;;
3767;SDS011;1899;49.966;7.106;2023-12-20T07:37:44;14.10;;;3.87;;
3767;SDS011;1899;49.966;7.106;2023-12-20T07:40:09;7.13;;;3.77;;
3767;SDS011;1899;49.966;7.106;2023-12-20T07:42:35;8.37;;;2.97;;
3767;SDS011;1899;49.966;7.106;2023-12-20T07:45:00;7.07;;;3.00;;
3767;SDS011;1899;49.966;7.106;2023-12-20T07:47:25;7.40;;;3.07;;
3767;SDS011;1899;49.966;7.106;2023-12-20T07:49:51;10.20;;;2.53;;
3767;SDS011;1899;49.966;7.106;2023-12-20T07:52:19;9.93;;;3.80;;
3767;SDS011;1899;49.966;7.106;2023-12-20T07:54:45;8.37;;;3.43;;
3767;SDS011;1899;49.966;7.106;2023-12-20T07:57:10;9.17;;;3.47;;
3767;SDS011;1899;49.966;7.106;2023-12-20T07:59:36;10.77;;;3.77;;
3767;SDS011;1899;49.966;7.106;2023-12-20T08:02:01;10.67;;;2.90;;
3767;SDS011;1899;49.966;7.106;2023-12-20T08:04:26;11.40;;;3.47;;
3767;SDS011;1899;49.966;7.106;2023-12-20T08:06:52;10.57;;;2.97;;
3767;SDS011;1899;49.966;7.106;2023-12-20T08:09:17;8.33;;;3.50;;
3767;SDS011;1899;49.966;7.106;2023-12-20T08:11:46;8.70;;;3.00;;
3767;SDS011;1899;49.966;7.106;2023-12-20T08:14:11;6.63;;;2.93;;
3767;SDS011;1899;49.966;7.106;2023-12-20T08:16:36;6.30;;;3.27;;
3767;SDS011;1899;49.966;7.106;2023-12-20T08:19:02;11.70;;;3.97;;
3767;SDS011;1899;49.966;7.106;2023-12-20T08:21:27;15.00;;;4.20;;
3767;SDS011;1899;49.966;7.106;2023-12-20T08:23:52;10.17;;;3.43;;
3767;SDS011;1899;49.966;7.106;2023-12-20T08:26:21;6.93;;;2.90;;
3767;SDS011;1899;49.966;7.106;2023-12-20T08:28:47;11.93;;;3.30;;
3767;SDS011;1899;49.966;7.106;2023-12-20T08:31:16;10.97;;;3.00;;
3767;SDS011;1899;49.966;7.106;2023-12-20T08:33:42;15.37;;;4.83;;
3767;SDS011;1899;49.966;7.106;2023-12-20T08:36:08;22.07;;;3.87;;
3767;SDS011;1899;49.966;7.106;2023-12-20T08:38:33;9.20;;;3.07;;
3767;SDS011;1899;49.966;7.106;2023-12-20T08:40:58;9.30;;;3.23;;
3767;SDS011;1899;49.966;7.106;2023-12-20T08:43:24;13.33;;;4.40;;
3767;SDS011;1899;49.966;7.106;2023-12-20T08:45:49;8.43;;;3.27;;
3767;SDS011;1899;49.966;7.106;2023-12-20T08:48:14;7.60;;;2.93;;
3767;SDS011;1899;49.966;7.106;2023-12-20T08:50:39;8.60;;;3.43;;
3767;SDS011;1899;49.966;7.106;2023-12-20T08:53:05;9.73;;;3.13;;
3767;SDS011;1899;49.966;7.106;2023-12-20T08:55:30;13.33;;;2.73;;
3767;SDS011;1899;49.966;7.106;2023-12-20T08:57:56;11.07;;;3.03;;
3767;SDS011;1899;49.966;7.106;2023-12-20T09:00:21;10.43;;;2.87;;
3767;SDS011;1899;49.966;7.106;2023-12-20T09:02:49;9.80;;;3.80;;
3767;SDS011;1899;49.966;7.106;2023-12-20T09:05:14;14.60;;;3.50;;
3767;SDS011;1899;49.966;7.106;2023-12-20T09:07:39;8.47;;;3.87;;
3767;SDS011;1899;49.966;7.106;2023-12-20T09:10:05;10.27;;;3.40;;
3767;SDS011;1899;49.966;7.106;2023-12-20T09:12:30;9.97;;;3.17;;
3767;SDS011;1899;49.966;7.106;2023-12-20T09:14:55;9.57;;;2.90;;
3767;SDS011;1899;49.966;7.106;2023-12-20T09:17:21;9.67;;;2.73;;
3767;SDS011;1899;49.966;7.106;2023-12-20T09:19:48;9.53;;;3.20;;
3767;SDS011;1899;49.966;7.106;2023-12-20T09:22:13;10.10;;;3.50;;
3767;SDS011;1899;49.966;7.106;2023-12-20T09:24:38;7.93;;;3.10;;
3767;SDS011;1899;49.966;7.106;2023-12-20T09:27:04;8.67;;;2.63;;
3767;SDS011;1899;49.966;7.106;2023-12-20T09:29:30;11.63;;;4.00;;
3767;SDS011;1899;49.966;7.106;2023-12-20T09:31:55;11.10;;;3.13;;
3767;SDS011;1899;49.966;7.106;2023-12-20T09:34:22;11.30;;;3.50;;
3767;SDS011;1899;49.966;7.106;2023-12-20T09:36:47;7.27;;;2.93;;
3767;SDS011;1899;49.966;7.106;2023-12-20T09:39:16;10.37;;;3.60;;
3767;SDS011;1899;49.966;7.106;2023-12-20T09:41:45;10.97;;;3.70;;
3767;SDS011;1899;49.966;7.106;2023-12-20T09:44:18;15.23;;;3.77;;
3767;SDS011;1899;49.966;7.106;2023-12-20T09:46:44;8.57;;;2.70;;
3767;SDS011;1899;49.966;7.106;2023-12-20T09:49:09;9.93;;;3.63;;
3767;SDS011;1899;49.966;7.106;2023-12-20T09:51:35;14.37;;;3.97;;
3767;SDS011;1899;49.966;7.106;2023-12-20T09:54:01;7.60;;;3.77;;
3767;SDS011;1899;49.966;7.106;2023-12-20T09:56:28;10.23;;;3.87;;
3767;SDS011;1899;49.966;7.106;2023-12-20T09:58:54;12.80;;;3.30;;
3767;SDS011;1899;49.966;7.106;2023-12-20T10:01:19;11.47;;;3.63;;
3767;SDS011;1899;49.966;7.106;2023-12-20T10:03:44;10.27;;;3.30;;
3767;SDS011;1899;49.966;7.106;2023-12-20T10:06:10;9.77;;;3.50;;
3767;SDS011;1899;49.966;7.106;2023-12-20T10:08:35;14.63;;;3.47;;
3767;SDS011;1899;49.966;7.106;2023-12-20T10:11:00;10.53;;;3.00;;
3767;SDS011;1899;49.966;7.106;2023-12-20T10:13:28;12.20;;;3.67;;
3767;SDS011;1899;49.966;7.106;2023-12-20T10:15:54;8.77;;;3.87;;
3767;SDS011;1899;49.966;7.106;2023-12-20T10:18:20;6.90;;;3.20;;
3767;SDS011;1899;49.966;7.106;2023-12-20T10:20:45;12.00;;;3.23;;
3767;SDS011;1899;49.966;7.106;2023-12-20T10:23:11;8.33;;;3.23;;
3767;SDS011;1899;49.966;7.106;2023-12-20T10:25:37;8.93;;;3.30;;
3767;SDS011;1899;49.966;7.106;2023-12-20T10:28:12;9.87;;;3.30;;
3767;SDS011;1899;49.966;7.106;2023-12-20T10:30:37;8.30;;;3.50;;
3767;SDS011;1899;49.966;7.106;2023-12-20T10:33:02;8.77;;;3.70;;
3767;SDS011;1899;49.966;7.106;2023-12-20T10:35:28;7.30;;;2.90;;
3767;SDS011;1899;49.966;7.106;2023-12-20T10:37:55;16.70;;;3.70;;
3767;SDS011;1899;49.966;7.106;2023-12-20T10:40:20;13.50;;;3.93;;
3767;SDS011;1899;49.966;7.106;2023-12-20T10:42:46;7.80;;;4.00;;
3767;SDS011;1899;49.966;7.106;2023-12-20T10:45:12;9.67;;;3.40;;
3767;SDS011;1899;49.966;7.106;2023-12-20T10:47:37;7.70;;;3.20;;
3767;SDS011;1899;49.966;7.106;2023-12-20T10:50:05;13.83;;;3.43;;
3767;SDS011;1899;49.966;7.106;2023-12-20T10:52:30;7.23;;;3.17;;
3767;SDS011;1899;49.966;7.106;2023-12-20T10:54:57;11.50;;;3.27;;
3767;SDS011;1899;49.966;7.106;2023-12-20T10:57:22;7.80;;;3.00;;
3767;SDS011;1899;49.966;7.106;2023-12-20T10:59:48;7.33;;;3.20;;
3767;SDS011;1899;49.966;7.106;2023-12-20T11:02:14;13.57;;;4.50;;
3767;SDS011;1899;49.966;7.106;2023-12-20T11:07:19;8.33;;;4.00;;
3767;SDS011;1899;49.966;7.106;2023-12-20T11:09:49;13.00;;;4.30;;
3767;SDS011;1899;49.966;7.106;2023-12-20T11:12:52;11.83;;;4.13;;
3767;SDS011;1899;49.966;7.106;2023-12-20T11:15:10;8.30;;;3.60;;
3767;SDS011;1899;49.966;7.106;2023-12-20T11:17:36;9.00;;;3.57;;
3767;SDS011;1899;49.966;7.106;2023-12-20T11:20:04;9.20;;;3.97;;
3767;SDS011;1899;49.966;7.106;2023-12-20T11:22:30;11.50;;;4.37;;
3767;SDS011;1899;49.966;7.106;2023-12-20T11:25:13;12.30;;;4.63;;
3767;SDS011;1899;49.966;7.106;2023-12-20T11:27:42;12.70;;;4.73;;
3767;SDS011;1899;49.966;7.106;2023-12-20T11:30:08;12.97;;;5.10;;
3767;SDS011;1899;49.966;7.106;2023-12-20T11:32:35;17.30;;;4.57;;
3767;SDS011;1899;49.966;7.106;2023-12-20T11:35:01;8.30;;;3.80;;
3767;SDS011;1899;49.966;7.106;2023-12-20T11:37:30;12.53;;;3.90;;
3767;SDS011;1899;49.966;7.106;2023-12-20T11:40:05;7.97;;;4.00;;
3767;SDS011;1899;49.966;7.106;2023-12-20T11:42:38;8.80;;;3.30;;
3767;SDS011;1899;49.966;7.106;2023-12-20T11:45:04;7.77;;;3.33;;
3767;SDS011;1899;49.966;7.106;2023-12-20T11:47:30;10.53;;;4.30;;
3767;SDS011;1899;49.966;7.106;2023-12-20T11:49:56;13.87;;;4.00;;
3767;SDS011;1899;49.966;7.106;2023-12-20T11:52:21;15.10;;;4.13;;
3767;SDS011;1899;49.966;7.106;2023-12-20T11:54:46;9.83;;;3.80;;
3767;SDS011;1899;49.966;7.106;2023-12-20T11:57:12;10.77;;;4.13;;
3767;SDS011;1899;49.966;7.106;2023-12-20T11:59:38;12.30;;;4.50;;
3767;SDS011;1899;49.966;7.106;2023-12-20T12:02:03;11.20;;;3.80;;
3767;SDS011;1899;49.966;7.106;2023-12-20T12:04:28;8.73;;;3.23;;
3767;SDS011;1899;49.966;7.106;2023-12-20T12:06:54;15.90;;;3.97;;
3767;SDS011;1899;49.966;7.106;2023-12-20T12:09:19;10.80;;;3.80;;
3767;SDS011;1899;49.966;7.106;2023-12-20T12:11:44;10.80;;;3.27;;
3767;SDS011;1899;49.966;7.106;2023-12-20T12:14:10;13.03;;;3.10;;
3767;SDS011;1899;49.966;7.106;2023-12-20T12:16:35;9.83;;;2.97;;
3767;SDS011;1899;49.966;7.106;2023-12-20T12:19:01;11.97;;;2.67;;
3767;SDS011;1899;49.966;7.106;2023-12-20T12:21:29;12.33;;;3.30;;
3767;SDS011;1899;49.966;7.106;2023-12-20T12:24:05;11.77;;;3.40;;
3767;SDS011;1899;49.966;7.106;2023-12-20T12:26:31;12.53;;;4.17;;
3767;SDS011;1899;49.966;7.106;2023-12-20T12:28:56;13.00;;;4.13;;
3767;SDS011;1899;49.966;7.106;2023-12-20T12:31:21;8.73;;;3.40;;
3767;SDS011;1899;49.966;7.106;2023-12-20T12:33:47;12.07;;;4.10;;
3767;SDS011;1899;49.966;7.106;2023-12-20T12:36:12;10.43;;;3.37;;
3767;SDS011;1899;49.966;7.106;2023-12-20T12:38:37;12.13;;;3.70;;
3767;SDS011;1899;49.966;7.106;2023-12-20T12:41:03;13.50;;;3.00;;
3767;SDS011;1899;49.966;7.106;2023-12-20T12:43:28;9.63;;;3.63;;
3767;SDS011;1899;49.966;7.106;2023-12-20T12:45:53;7.70;;;2.93;;
3767;SDS011;1899;49.966;7.106;2023-12-20T12:48:20;9.13;;;2.83;;
3767;SDS011;1899;49.966;7.106;2023-12-20T12:50:45;8.33;;;2.90;;
3767;SDS011;1899;49.966;7.106;2023-12-20T12:53:11;14.70;;;2.87;;
3767;SDS011;1899;49.966;7.106;2023-12-20T12:55:36;12.33;;;2.60;;
3767;SDS011;1899;49.966;7.106;2023-12-20T12:58:01;16.27;;;3.17;;
3767;SDS011;1899;49.966;7.106;2023-12-20T13:00:27;7.47;;;2.50;;
3767;SDS011;1899;49.966;7.106;2023-12-20T13:02:52;8.60;;;2.90;;
3767;SDS011;1899;49.966;7.106;2023-12-20T13:05:17;16.13;;;3.30;;
3767;SDS011;1899;49.966;7.106;2023-12-20T13:07:43;12.17;;;2.67;;
3767;SDS011;1899;49.966;7.106;2023-12-20T13:10:10;11.07;;;3.83;;
3767;SDS011;1899;49.966;7.106;2023-12-20T13:12:35;10.90;;;3.50;;
3767;SDS011;1899;49.966;7.106;2023-12-20T13:15:01;8.20;;;3.00;;
3767;SDS011;1899;49.966;7.106;2023-12-20T13:17:26;11.37;;;3.00;;
3767;SDS011;1899;49.966;7.106;2023-12-20T13:19:51;11.10;;;3.50;;
3767;SDS011;1899;49.966;7.106;2023-12-20T13:22:17;11.80;;;2.90;;
3767;SDS011;1899;49.966;7.106;2023-12-20T13:24:42;10.77;;;3.13;;
3767;SDS011;1899;49.966;7.106;2023-12-20T13:27:09;8.57;;;3.33;;
3767;SDS011;1899;49.966;7.106;2023-12-20T13:29:34;8.70;;;3.07;;
3767;SDS011;1899;49.966;7.106;2023-12-20T13:31:59;7.83;;;2.37;;
3767;SDS011;1899;49.966;7.106;2023-12-20T13:34:25;15.90;;;3.20;;
3767;SDS011;1899;49.966;7.106;2023-12-20T13:36:50;7.60;;;3.37;;
3767;SDS011;1899;49.966;7.106;2023-12-20T13:39:15;8.77;;;2.90;;
3767;SDS011;1899;49.966;7.106;2023-12-20T13:41:42;8.23;;;2.50;;
3767;SDS011;1899;49.966;7.106;2023-12-20T13:44:07;10.10;;;3.03;;
3767;SDS011;1899;49.966;7.106;2023-12-20T13:46:32;13.77;;;2.80;;
3767;SDS011;1899;49.966;7.106;2023-12-20T13:48:57;10.70;;;2.40;;
3767;SDS011;1899;49.966;7.106;2023-12-20T13:51:23;14.67;;;3.27;;
3767;SDS011;1899;49.966;7.106;2023-12-20T13:53:48;11.50;;;2.50;;
3767;SDS011;1899;49.966;7.106;2023-12-20T13:56:14;11.33;;;2.23;;
3767;SDS011;1899;49.966;7.106;2023-12-20T13:58:39;8.93;;;2.50;;
3767;SDS011;1899;49.966;7.106;2023-12-20T14:01:06;11.90;;;3.10;;
3767;SDS011;1899;49.966;7.106;2023-12-20T14:03:31;6.53;;;2.10;;
3767;SDS011;1899;49.966;7.106;2023-12-20T14:05:57;6.63;;;2.13;;
3767;SDS011;1899;49.966;7.106;2023-12-20T14:08:22;7.90;;;2.67;;
3767;SDS011;1899;49.966;7.106;2023-12-20T14:10:47;15.77;;;3.40;;
3767;SDS011;1899;49.966;7.106;2023-12-20T14:13:13;6.67;;;2.63;;
3767;SDS011;1899;49.966;7.106;2023-12-20T14:15:39;6.70;;;2.43;;
3767;SDS011;1899;49.966;7.106;2023-12-20T14:18:04;13.37;;;3.93;;
3767;SDS011;1899;49.966;7.106;2023-12-20T14:20:31;9.27;;;2.87;;
3767;SDS011;1899;49.966;7.106;2023-12-20T14:22:57;7.50;;;2.97;;
3767;SDS011;1899;49.966;7.106;2023-12-20T14:25:22;11.10;;;2.63;;
3767;SDS011;1899;49.966;7.106;2023-12-20T14:27:48;8.10;;;2.50;;
3767;SDS011;1899;49.966;7.106;2023-12-20T14:30:13;8.40;;;2.40;;
3767;SDS011;1899;49.966;7.106;2023-12-20T14:32:39;5.80;;;2.17;;
3767;SDS011;1899;49.966;7.106;2023-12-20T14:35:05;7.80;;;2.07;;
3767;SDS011;1899;49.966;7.106;2023-12-20T14:37:30;8.60;;;2.33;;
3767;SDS011;1899;49.966;7.106;2023-12-20T14:39:56;9.83;;;2.57;;
3767;SDS011;1899;49.966;7.106;2023-12-20T14:42:21;9.50;;;2.30;;
3767;SDS011;1899;49.966;7.106;2023-12-20T14:44:47;16.10;;;3.30;;
3767;SDS011;1899;49.966;7.106;2023-12-20T14:47:12;7.60;;;2.77;;
3767;SDS011;1899;49.966;7.106;2023-12-20T14:49:39;7.40;;;2.17;;
3767;SDS011;1899;49.966;7.106;2023-12-20T14:52:05;7.67;;;2.57;;
3767;SDS011;1899;49.966;7.106;2023-12-20T14:54:30;10.43;;;2.80;;
3767;SDS011;1899;49.966;7.106;2023-12-20T14:56:55;8.80;;;2.70;;
3767;SDS011;1899;49.966;7.106;2023-12-20T14:59:21;11.13;;;3.20;;
3767;SDS011;1899;49.966;7.106;2023-12-20T15:01:46;7.17;;;2.80;;
3767;SDS011;1899;49.966;7.106;2023-12-20T15:04:12;13.03;;;3.80;;
3767;SDS011;1899;49.966;7.106;2023-12-20T15:06:37;8.00;;;2.33;;